PWSweather.com
Personal Weather Stations
Station Observations
GEELONGWX1
Bell Post Hill, GeelongAU

Bell Post HillGeelongAU

Lat: -38.101, Lon: 144.326

Elevation: 204

Station Type: Davis Vantage Pro2

http://www.geelongweather.com

Latest ConditionsUpdated 9:40:01 AM GMT+10:10 Friday, Sep 30, 2016
Currently Today's Max Today's Min Today's Average
Temperature 55.8°F13.2°C 57.5°F14.2°C 48.1°F8.9°C 50.5°F10.3°C
Dew Point 48.4°F9.1°C 50.1°F10.1°C 44.2°F6.8°C 46.7°F8.2°C
Winds 2.3 mph S3.7 kmh S 8.1 mph N13.0 kmh N - 3.4 mph 5.5 kmh
Wind Gusts 3.5 mph5.6 kmh 11.5 mph18.5 kmh - -
Humidity 76% 93% 70% 87%
Pressure 29.37 in994.6 mb 29.37 in994.6 mb 29.24 in990.2 mb -
Precipitation - 0.01 in0.3 mm - -
Hour Temp Dew Point Humidity Winds Wind Gusts Pressure Precip Precip Rate Daily Precip Total
09:40 AM 55.8°F13.2°C 48.4°F9.1°C 76% 2.3 mph S3.7 kmh S 3.5 mph5.6 kmh 29.37 in994.6 mb - 0.00 in0.0 mm 0.01 in0.3 mm
09:30 AM 57.5°F14.2°C 47.8°F8.8°C 70% 1.2 mph S1.9 kmh S 3.5 mph5.6 kmh 29.37 in994.6 mb - 0.00 in0.0 mm 0.01 in0.3 mm
09:20 AM 57.4°F14.1°C 49.9°F9.9°C 76% 3.5 mph S5.6 kmh S 8.1 mph13.0 kmh 29.37 in994.6 mb - 0.00 in0.0 mm 0.01 in0.3 mm
09:10 AM 56.2°F13.4°C 50.1°F10.1°C 80% 2.3 mph SSE3.7 kmh SSE 3.5 mph5.6 kmh 29.37 in994.6 mb - 0.00 in0.0 mm 0.01 in0.3 mm
09:00 AM 55.3°F12.9°C 49.2°F9.6°C 80% 2.3 mph S3.7 kmh S 4.6 mph7.4 kmh 29.36 in994.2 mb - 0.00 in0.0 mm 0.01 in0.3 mm
08:50 AM 55.1°F12.8°C 49.4°F9.7°C 81% 3.5 mph S5.6 kmh S 6.9 mph11.1 kmh 29.36 in994.2 mb - 0.00 in0.0 mm 0.01 in0.3 mm
08:40 AM 54.8°F12.7°C 49.4°F9.7°C 82% 4.6 mph S7.4 kmh S 5.8 mph9.3 kmh 29.35 in993.9 mb - 0.00 in0.0 mm 0.01 in0.3 mm
08:30 AM 54.2°F12.3°C 49.1°F9.5°C 83% 4.6 mph SSW7.4 kmh SSW 8.1 mph13.0 kmh 29.35 in993.9 mb - 0.00 in0.0 mm 0.01 in0.3 mm
08:20 AM 52.9°F11.6°C 48.5°F9.2°C 85% 3.5 mph SSW5.6 kmh SSW 4.6 mph7.4 kmh 29.34 in993.6 mb - 0.00 in0.0 mm 0.01 in0.3 mm
08:10 AM 51.9°F11.1°C 48.4°F9.1°C 88% 3.5 mph SW5.6 kmh SW 6.9 mph11.1 kmh 29.34 in993.6 mb - 0.00 in0.0 mm 0.01 in0.3 mm
08:00 AM 51.6°F10.9°C 48.1°F8.9°C 88% 4.6 mph SSW7.4 kmh SSW 5.8 mph9.3 kmh 29.33 in993.2 mb - 0.00 in0.0 mm 0.01 in0.3 mm
07:50 AM 50.8°F10.4°C 47.7°F8.7°C 89% 2.3 mph SSW3.7 kmh SSW 3.5 mph5.6 kmh 29.33 in993.2 mb - 0.00 in0.0 mm 0.01 in0.3 mm
07:40 AM 50.7°F10.4°C 47.9°F8.8°C 90% 3.5 mph SW5.6 kmh SW 4.6 mph7.4 kmh 29.32 in992.9 mb - 0.00 in0.0 mm 0.01 in0.3 mm
07:30 AM 50.2°F10.1°C 48.0°F8.9°C 92% 2.3 mph S3.7 kmh S 4.6 mph7.4 kmh 29.32 in992.9 mb - 0.00 in0.0 mm 0.01 in0.3 mm
07:20 AM 49.4°F9.7°C 46.9°F8.3°C 91% 1.2 mph S1.9 kmh S 2.3 mph3.7 kmh 29.32 in992.9 mb - 0.00 in0.0 mm 0.01 in0.3 mm
07:10 AM 49.0°F9.4°C 46.8°F8.2°C 92% 2.3 mph SW3.7 kmh SW 3.5 mph5.6 kmh 29.31 in992.6 mb - 0.00 in0.0 mm 0.01 in0.3 mm
07:00 AM 48.5°F9.2°C 46.0°F7.8°C 91% 2.3 mph SW3.7 kmh SW 3.5 mph5.6 kmh 29.31 in992.6 mb - 0.00 in0.0 mm 0.01 in0.3 mm
06:50 AM 48.1°F8.9°C 45.6°F7.6°C 91% 1.2 mph NW1.9 kmh NW 2.3 mph3.7 kmh 29.31 in992.6 mb - 0.00 in0.0 mm 0.01 in0.3 mm
06:40 AM 48.1°F8.9°C 45.3°F7.4°C 90% 2.3 mph NNW3.7 kmh NNW 3.5 mph5.6 kmh 29.30 in992.2 mb - 0.00 in0.0 mm 0.01 in0.3 mm
06:30 AM 48.2°F9.0°C 45.4°F7.4°C 90% Calm Calm -- 29.30 in992.2 mb - 0.00 in0.0 mm 0.01 in0.3 mm
06:20 AM 48.2°F9.0°C 45.4°F7.4°C 90% Calm Calm -- 29.30 in992.2 mb - 0.00 in0.0 mm 0.01 in0.3 mm
06:10 AM 48.3°F9.1°C 45.5°F7.5°C 90% Calm Calm -- 29.29 in991.9 mb - 0.00 in0.0 mm 0.01 in0.3 mm
06:00 AM 48.3°F9.1°C 45.5°F7.5°C 90% Calm Calm -- 29.29 in991.9 mb - 0.00 in0.0 mm 0.01 in0.3 mm
05:50 AM 48.3°F9.1°C 45.5°F7.5°C 90% Calm Calm -- 29.29 in991.9 mb - 0.00 in0.0 mm 0.01 in0.3 mm
05:40 AM 48.4°F9.1°C 46.5°F8.1°C 93% Calm Calm -- 29.28 in991.5 mb - 0.00 in0.0 mm 0.01 in0.3 mm
05:30 AM 48.5°F9.2°C 45.7°F7.6°C 90% 1.2 mph NNW1.9 kmh NNW 2.3 mph3.7 kmh 29.28 in991.5 mb - 0.00 in0.0 mm 0.01 in0.3 mm
05:20 AM 48.6°F9.2°C 45.8°F7.7°C 90% Calm Calm -- 29.27 in991.2 mb - 0.00 in0.0 mm 0.01 in0.3 mm
05:10 AM 48.7°F9.3°C 45.9°F7.7°C 90% Calm Calm -- 29.27 in991.2 mb - 0.00 in0.0 mm 0.01 in0.3 mm
05:00 AM 48.9°F9.4°C 46.1°F7.8°C 90% 1.2 mph NNW1.9 kmh NNW 2.3 mph3.7 kmh 29.27 in991.2 mb - 0.00 in0.0 mm 0.01 in0.3 mm
04:50 AM 49.1°F9.5°C 46.3°F7.9°C 90% 1.2 mph N1.9 kmh N 2.3 mph3.7 kmh 29.26 in990.9 mb - 0.00 in0.0 mm 0.01 in0.3 mm
04:40 AM 49.4°F9.7°C 46.6°F8.1°C 90% Calm Calm -- 29.26 in990.9 mb - 0.00 in0.0 mm 0.01 in0.3 mm
04:30 AM 49.6°F9.8°C 46.8°F8.2°C 90% 1.2 mph 1.9 kmh 2.3 mph3.7 kmh 29.26 in990.9 mb - 0.00 in0.0 mm 0.01 in0.3 mm
04:20 AM 49.7°F9.8°C 46.9°F8.3°C 90% 2.3 mph N3.7 kmh N 3.5 mph5.6 kmh 29.25 in990.5 mb - 0.00 in0.0 mm 0.01 in0.3 mm
04:10 AM 49.9°F9.9°C 47.1°F8.4°C 90% 4.6 mph N7.4 kmh N 4.6 mph7.4 kmh 29.25 in990.5 mb - 0.00 in0.0 mm 0.01 in0.3 mm
04:00 AM 50.1°F10.1°C 47.3°F8.5°C 90% 2.3 mph N3.7 kmh N 3.5 mph5.6 kmh 29.25 in990.5 mb - 0.00 in0.0 mm 0.01 in0.3 mm
03:50 AM 50.2°F10.1°C 47.4°F8.6°C 90% 6.9 mph N11.1 kmh N 9.2 mph14.8 kmh 29.25 in990.5 mb - 0.00 in0.0 mm 0.01 in0.3 mm
03:40 AM 50.3°F10.2°C 47.5°F8.6°C 90% 6.9 mph N11.1 kmh N 9.2 mph14.8 kmh 29.25 in990.5 mb - 0.00 in0.0 mm 0.01 in0.3 mm
03:30 AM 50.3°F10.2°C 47.5°F8.6°C 90% 3.5 mph N5.6 kmh N 4.6 mph7.4 kmh 29.25 in990.5 mb - 0.00 in0.0 mm 0.01 in0.3 mm
03:20 AM 50.3°F10.2°C 47.2°F8.4°C 89% 4.6 mph N7.4 kmh N 6.9 mph11.1 kmh 29.24 in990.2 mb - 0.00 in0.0 mm 0.01 in0.3 mm
03:10 AM 50.4°F10.2°C 47.3°F8.5°C 89% 6.9 mph N11.1 kmh N 9.2 mph14.8 kmh 29.25 in990.5 mb - 0.00 in0.0 mm 0.01 in0.3 mm
03:00 AM 50.4°F10.2°C 47.0°F8.3°C 88% 8.1 mph N13.0 kmh N 10.4 mph16.7 kmh 29.25 in990.5 mb - 0.00 in0.0 mm 0.01 in0.3 mm
02:50 AM 50.4°F10.2°C 47.0°F8.3°C 88% 6.9 mph N11.1 kmh N 11.5 mph18.5 kmh 29.25 in990.5 mb - 0.00 in0.0 mm 0.01 in0.3 mm
02:40 AM 50.3°F10.2°C 46.9°F8.3°C 88% 6.9 mph N11.1 kmh N 6.9 mph11.1 kmh 29.25 in990.5 mb - 0.00 in0.0 mm 0.01 in0.3 mm
02:30 AM 50.3°F10.2°C 46.9°F8.3°C 88% 8.1 mph N13.0 kmh N 10.4 mph16.7 kmh 29.25 in990.5 mb - 0.00 in0.0 mm 0.01 in0.3 mm
02:20 AM 50.3°F10.2°C 46.6°F8.1°C 87% 5.8 mph 9.3 kmh 8.1 mph13.0 kmh 29.25 in990.5 mb - 0.00 in0.0 mm 0.01 in0.3 mm
02:10 AM 50.3°F10.2°C 46.6°F8.1°C 87% 5.8 mph 9.3 kmh 9.2 mph14.8 kmh 29.25 in990.5 mb - 0.00 in0.0 mm 0.01 in0.3 mm
02:00 AM 50.3°F10.2°C 46.6°F8.1°C 87% 4.6 mph N7.4 kmh N 8.1 mph13.0 kmh 29.25 in990.5 mb - 0.00 in0.0 mm 0.01 in0.3 mm
01:50 AM 50.3°F10.2°C 46.3°F7.9°C 86% 3.5 mph NNE5.6 kmh NNE 8.1 mph13.0 kmh 29.25 in990.5 mb - 0.00 in0.0 mm 0.01 in0.3 mm
01:40 AM 50.3°F10.2°C 46.3°F7.9°C 86% 6.9 mph NNE11.1 kmh NNE 8.1 mph13.0 kmh 29.25 in990.5 mb - 0.00 in0.0 mm 0.01 in0.3 mm
01:30 AM 50.4°F10.2°C 46.1°F7.8°C 85% 5.8 mph N9.3 kmh N 10.4 mph16.7 kmh 29.26 in990.9 mb - 0.01 in0.3 mm 0.01 in0.3 mm
01:20 AM 50.3°F10.2°C 45.6°F7.6°C 84% 6.9 mph 11.1 kmh 10.4 mph16.7 kmh 29.26 in990.9 mb - 0.00 in0.0 mm 0.01 in0.3 mm
01:10 AM 50.0°F10.0°C 45.3°F7.4°C 84% 4.6 mph NNE7.4 kmh NNE 9.2 mph14.8 kmh 29.25 in990.5 mb - 0.00 in0.0 mm 0.01 in0.3 mm
01:00 AM 49.6°F9.8°C 44.3°F6.8°C 82% 4.6 mph NNE7.4 kmh NNE 4.6 mph7.4 kmh 29.25 in990.5 mb - 0.00 in0.0 mm 0.01 in0.3 mm
12:50 AM 49.4°F9.7°C 44.2°F6.8°C 82% 2.3 mph N3.7 kmh N 6.9 mph11.1 kmh 29.25 in990.5 mb - 0.00 in0.0 mm 0.01 in0.3 mm
12:40 AM 49.5°F9.7°C 44.2°F6.8°C 82% 5.8 mph N9.3 kmh N 8.1 mph13.0 kmh 29.25 in990.5 mb - 0.00 in0.0 mm 0.01 in0.3 mm
12:30 AM 49.5°F9.7°C 44.5°F6.9°C 83% 5.8 mph N9.3 kmh N 9.2 mph14.8 kmh 29.25 in990.5 mb - 0.00 in0.0 mm 0.01 in0.3 mm
12:20 AM 49.5°F9.7°C 44.6°F7.0°C 83% 2.3 mph N3.7 kmh N 4.6 mph7.4 kmh 29.25 in990.5 mb - 0.00 in0.0 mm 0.01 in0.3 mm
12:10 AM 49.6°F9.8°C 44.3°F6.8°C 82% 4.6 mph N7.4 kmh N 6.9 mph11.1 kmh 29.25 in990.5 mb - 0.00 in0.0 mm 0.01 in0.3 mm
12:00 AM 49.9°F9.9°C 44.9°F7.2°C 83% 4.6 mph NNE7.4 kmh NNE 6.9 mph11.1 kmh 29.26 in990.9 mb - 0.01 in0.3 mm 0.01 in0.3 mm